sensor_id;sensor_type;location;lat;lon;timestamp;P1;durP1;ratioP1;P2;durP2;ratioP2
58621;SDS011;44389;51.578;5.456;2023-02-15T00:51:52;110.32;;;66.65;;
58621;SDS011;44389;51.578;5.456;2023-02-15T00:54:17;112.30;;;67.57;;
58621;SDS011;44389;51.578;5.456;2023-02-15T00:56:43;106.60;;;65.10;;
58621;SDS011;44389;51.578;5.456;2023-02-15T00:59:08;108.93;;;66.65;;
58621;SDS011;44389;51.578;5.456;2023-02-15T01:01:34;103.18;;;64.03;;
58621;SDS011;44389;51.578;5.456;2023-02-15T01:03:59;88.47;;;55.40;;
58621;SDS011;44389;51.578;5.456;2023-02-15T01:06:24;80.72;;;53.55;;
58621;SDS011;44389;51.578;5.456;2023-02-15T01:08:50;98.05;;;61.42;;
58621;SDS011;44389;51.578;5.456;2023-02-15T01:11:16;104.20;;;62.80;;
58621;SDS011;44389;51.578;5.456;2023-02-15T01:13:50;93.47;;;59.30;;
58621;SDS011;44389;51.578;5.456;2023-02-15T01:16:17;107.28;;;65.90;;
58621;SDS011;44389;51.578;5.456;2023-02-15T01:18:43;115.18;;;67.65;;
58621;SDS011;44389;51.578;5.456;2023-02-15T01:21:18;119.13;;;68.53;;
58621;SDS011;44389;51.578;5.456;2023-02-15T01:23:45;131.00;;;74.13;;
58621;SDS011;44389;51.578;5.456;2023-02-15T01:26:11;121.07;;;68.35;;
58621;SDS011;44389;51.578;5.456;2023-02-15T01:28:37;120.05;;;68.70;;
58621;SDS011;44389;51.578;5.456;2023-02-15T01:31:10;123.22;;;69.78;;
58621;SDS011;44389;51.578;5.456;2023-02-15T01:33:37;120.18;;;69.25;;
58621;SDS011;44389;51.578;5.456;2023-02-15T01:36:03;116.47;;;67.68;;
58621;SDS011;44389;51.578;5.456;2023-02-15T01:38:29;119.18;;;68.63;;
58621;SDS011;44389;51.578;5.456;2023-02-15T01:40:55;89.47;;;55.00;;
58621;SDS011;44389;51.578;5.456;2023-02-15T01:43:45;103.85;;;62.95;;
58621;SDS011;44389;51.578;5.456;2023-02-15T01:46:16;112.43;;;63.70;;
58621;SDS011;44389;51.578;5.456;2023-02-15T01:48:45;109.90;;;64.43;;
58621;SDS011;44389;51.578;5.456;2023-02-15T01:51:13;107.18;;;65.80;;
58621;SDS011;44389;51.578;5.456;2023-02-15T01:53:43;97.20;;;59.10;;
58621;SDS011;44389;51.578;5.456;2023-02-15T01:56:16;106.65;;;62.33;;
58621;SDS011;44389;51.578;5.456;2023-02-15T01:58:46;133.02;;;76.15;;
58621;SDS011;44389;51.578;5.456;2023-02-15T02:01:12;129.02;;;74.45;;
58621;SDS011;44389;51.578;5.456;2023-02-15T02:06:38;102.78;;;63.13;;
58621;SDS011;44389;51.578;5.456;2023-02-15T02:09:04;96.20;;;59.60;;
58621;SDS011;44389;51.578;5.456;2023-02-15T02:11:30;92.55;;;57.85;;
58621;SDS011;44389;51.578;5.456;2023-02-15T02:13:56;103.15;;;60.45;;
58621;SDS011;44389;51.578;5.456;2023-02-15T02:33:16;96.00;;;57.58;;
58621;SDS011;44389;51.578;5.456;2023-02-15T02:36:15;100.70;;;58.53;;
58621;SDS011;44389;51.578;5.456;2023-02-15T02:42:13;110.70;;;63.17;;
58621;SDS011;44389;51.578;5.456;2023-02-15T02:44:48;118.70;;;64.82;;
58621;SDS011;44389;51.578;5.456;2023-02-15T02:47:32;118.25;;;65.97;;
58621;SDS011;44389;51.578;5.456;2023-02-15T02:50:06;124.78;;;68.10;;
58621;SDS011;44389;51.578;5.456;2023-02-15T02:55:03;112.15;;;67.10;;
58621;SDS011;44389;51.578;5.456;2023-02-15T02:57:32;112.00;;;66.10;;
58621;SDS011;44389;51.578;5.456;2023-02-15T03:00:02;115.25;;;70.70;;
58621;SDS011;44389;51.578;5.456;2023-02-15T03:02:34;132.38;;;72.38;;
58621;SDS011;44389;51.578;5.456;2023-02-15T03:05:05;131.93;;;74.85;;
58621;SDS011;44389;51.578;5.456;2023-02-15T03:07:36;121.65;;;69.53;;
58621;SDS011;44389;51.578;5.456;2023-02-15T03:10:04;124.15;;;72.18;;
58621;SDS011;44389;51.578;5.456;2023-02-15T03:12:32;121.80;;;71.37;;
58621;SDS011;44389;51.578;5.456;2023-02-15T03:15:04;114.13;;;68.50;;
58621;SDS011;44389;51.578;5.456;2023-02-15T03:17:35;113.28;;;67.63;;
58621;SDS011;44389;51.578;5.456;2023-02-15T03:20:13;114.20;;;69.13;;
58621;SDS011;44389;51.578;5.456;2023-02-15T03:22:54;117.82;;;69.28;;
58621;SDS011;44389;51.578;5.456;2023-02-15T03:25:31;120.95;;;69.85;;
58621;SDS011;44389;51.578;5.456;2023-02-15T03:28:00;107.85;;;64.38;;
58621;SDS011;44389;51.578;5.456;2023-02-15T03:30:31;115.03;;;68.38;;
58621;SDS011;44389;51.578;5.456;2023-02-15T03:32:59;123.18;;;67.45;;
58621;SDS011;44389;51.578;5.456;2023-02-15T03:35:27;115.07;;;69.57;;
58621;SDS011;44389;51.578;5.456;2023-02-15T03:38:01;107.53;;;64.70;;
58621;SDS011;44389;51.578;5.456;2023-02-15T03:40:32;108.93;;;65.47;;
58621;SDS011;44389;51.578;5.456;2023-02-15T03:46:13;118.35;;;69.22;;
58621;SDS011;44389;51.578;5.456;2023-02-15T03:48:49;133.57;;;73.13;;
58621;SDS011;44389;51.578;5.456;2023-02-15T03:51:18;134.98;;;72.82;;
58621;SDS011;44389;51.578;5.456;2023-02-15T03:54:41;75.10;;;25.90;;
58621;SDS011;44389;51.578;5.456;2023-02-15T03:57:26;117.75;;;68.50;;
58621;SDS011;44389;51.578;5.456;2023-02-15T04:03:05;121.50;;;69.63;;
58621;SDS011;44389;51.578;5.456;2023-02-15T04:05:52;125.65;;;71.78;;
58621;SDS011;44389;51.578;5.456;2023-02-15T04:08:17;126.55;;;71.32;;
58621;SDS011;44389;51.578;5.456;2023-02-15T04:10:43;128.07;;;72.20;;
58621;SDS011;44389;51.578;5.456;2023-02-15T04:13:21;126.45;;;72.93;;
58621;SDS011;44389;51.578;5.456;2023-02-15T04:16:04;137.32;;;77.05;;
58621;SDS011;44389;51.578;5.456;2023-02-15T04:21:15;132.65;;;74.53;;
58621;SDS011;44389;51.578;5.456;2023-02-15T04:23:59;131.85;;;74.78;;
58621;SDS011;44389;51.578;5.456;2023-02-15T04:26:43;68.60;;;24.48;;
58621;SDS011;44389;51.578;5.456;2023-02-15T04:29:08;124.97;;;69.13;;
58621;SDS011;44389;51.578;5.456;2023-02-15T04:31:34;127.25;;;70.72;;
58621;SDS011;44389;51.578;5.456;2023-02-15T04:33:59;133.60;;;73.53;;
58621;SDS011;44389;51.578;5.456;2023-02-15T04:36:24;133.90;;;72.72;;
58621;SDS011;44389;51.578;5.456;2023-02-15T04:38:49;135.40;;;77.20;;
58621;SDS011;44389;51.578;5.456;2023-02-15T04:41:15;140.45;;;76.70;;
58621;SDS011;44389;51.578;5.456;2023-02-15T04:43:40;139.80;;;77.53;;
58621;SDS011;44389;51.578;5.456;2023-02-15T04:46:05;133.73;;;73.53;;
58621;SDS011;44389;51.578;5.456;2023-02-15T04:48:31;131.30;;;74.57;;
58621;SDS011;44389;51.578;5.456;2023-02-15T04:50:56;139.55;;;78.05;;
58621;SDS011;44389;51.578;5.456;2023-02-15T04:53:21;141.90;;;75.88;;
58621;SDS011;44389;51.578;5.456;2023-02-15T04:55:46;140.20;;;74.05;;
58621;SDS011;44389;51.578;5.456;2023-02-15T04:58:12;130.98;;;73.55;;
58621;SDS011;44389;51.578;5.456;2023-02-15T05:00:37;143.30;;;80.38;;
58621;SDS011;44389;51.578;5.456;2023-02-15T05:03:02;153.43;;;78.13;;
58621;SDS011;44389;51.578;5.456;2023-02-15T05:05:28;146.48;;;77.13;;
58621;SDS011;44389;51.578;5.456;2023-02-15T05:07:53;143.60;;;79.25;;
58621;SDS011;44389;51.578;5.456;2023-02-15T05:10:19;70.50;;;26.95;;
58621;SDS011;44389;51.578;5.456;2023-02-15T05:12:44;147.57;;;79.85;;
58621;SDS011;44389;51.578;5.456;2023-02-15T05:15:09;154.10;;;81.95;;
58621;SDS011;44389;51.578;5.456;2023-02-15T05:17:35;162.15;;;83.95;;
58621;SDS011;44389;51.578;5.456;2023-02-15T05:20:00;161.25;;;84.97;;
58621;SDS011;44389;51.578;5.456;2023-02-15T05:22:25;171.90;;;88.72;;
58621;SDS011;44389;51.578;5.456;2023-02-15T05:24:51;166.48;;;87.05;;
58621;SDS011;44389;51.578;5.456;2023-02-15T05:27:35;165.32;;;86.55;;
58621;SDS011;44389;51.578;5.456;2023-02-15T05:30:19;169.05;;;84.30;;
58621;SDS011;44389;51.578;5.456;2023-02-15T05:32:44;161.80;;;82.93;;
58621;SDS011;44389;51.578;5.456;2023-02-15T05:35:12;164.35;;;83.75;;
58621;SDS011;44389;51.578;5.456;2023-02-15T05:37:39;157.68;;;81.20;;
58621;SDS011;44389;51.578;5.456;2023-02-15T05:40:04;152.38;;;82.22;;
58621;SDS011;44389;51.578;5.456;2023-02-15T05:42:30;159.57;;;78.60;;
58621;SDS011;44389;51.578;5.456;2023-02-15T05:44:55;156.18;;;82.47;;
58621;SDS011;44389;51.578;5.456;2023-02-15T05:47:20;162.48;;;82.47;;
58621;SDS011;44389;51.578;5.456;2023-02-15T05:49:46;155.38;;;81.18;;
58621;SDS011;44389;51.578;5.456;2023-02-15T05:52:11;154.10;;;79.68;;
58621;SDS011;44389;51.578;5.456;2023-02-15T05:54:37;159.43;;;81.93;;
58621;SDS011;44389;51.578;5.456;2023-02-15T05:57:02;177.52;;;87.40;;
58621;SDS011;44389;51.578;5.456;2023-02-15T05:59:27;175.05;;;88.22;;
58621;SDS011;44389;51.578;5.456;2023-02-15T06:01:52;187.40;;;90.90;;
58621;SDS011;44389;51.578;5.456;2023-02-15T06:04:18;185.82;;;89.95;;
58621;SDS011;44389;51.578;5.456;2023-02-15T06:06:44;174.90;;;89.03;;
58621;SDS011;44389;51.578;5.456;2023-02-15T06:09:10;180.57;;;87.70;;
58621;SDS011;44389;51.578;5.456;2023-02-15T06:14:02;164.30;;;81.80;;
58621;SDS011;44389;51.578;5.456;2023-02-15T06:16:27;166.15;;;82.78;;
58621;SDS011;44389;51.578;5.456;2023-02-15T06:18:53;175.13;;;85.72;;
58621;SDS011;44389;51.578;5.456;2023-02-15T06:21:18;163.30;;;81.95;;
58621;SDS011;44389;51.578;5.456;2023-02-15T06:23:43;170.93;;;85.05;;
58621;SDS011;44389;51.578;5.456;2023-02-15T06:26:08;166.98;;;83.93;;
58621;SDS011;44389;51.578;5.456;2023-02-15T06:28:34;175.45;;;85.35;;
58621;SDS011;44389;51.578;5.456;2023-02-15T06:30:59;89.07;;;29.92;;
58621;SDS011;44389;51.578;5.456;2023-02-15T06:33:24;181.02;;;85.88;;
58621;SDS011;44389;51.578;5.456;2023-02-15T06:35:50;183.40;;;87.65;;
58621;SDS011;44389;51.578;5.456;2023-02-15T06:38:15;177.15;;;83.25;;
58621;SDS011;44389;51.578;5.456;2023-02-15T06:40:40;170.27;;;85.85;;
58621;SDS011;44389;51.578;5.456;2023-02-15T06:43:06;168.68;;;83.38;;
58621;SDS011;44389;51.578;5.456;2023-02-15T06:45:31;177.50;;;89.45;;
58621;SDS011;44389;51.578;5.456;2023-02-15T06:47:56;181.13;;;88.68;;
58621;SDS011;44389;51.578;5.456;2023-02-15T06:50:21;182.68;;;88.47;;
58621;SDS011;44389;51.578;5.456;2023-02-15T06:52:47;185.57;;;89.13;;
58621;SDS011;44389;51.578;5.456;2023-02-15T06:55:12;175.50;;;87.78;;
58621;SDS011;44389;51.578;5.456;2023-02-15T06:57:37;182.05;;;89.40;;
58621;SDS011;44389;51.578;5.456;2023-02-15T07:00:03;194.48;;;93.97;;
58621;SDS011;44389;51.578;5.456;2023-02-15T07:02:29;192.82;;;94.18;;
58621;SDS011;44389;51.578;5.456;2023-02-15T07:04:56;187.23;;;93.15;;
58621;SDS011;44389;51.578;5.456;2023-02-15T07:07:21;193.23;;;95.47;;
58621;SDS011;44389;51.578;5.456;2023-02-15T07:09:46;217.60;;;97.35;;
58621;SDS011;44389;51.578;5.456;2023-02-15T07:12:12;236.93;;;123.63;;
58621;SDS011;44389;51.578;5.456;2023-02-15T07:14:56;204.85;;;94.25;;
58621;SDS011;44389;51.578;5.456;2023-02-15T07:17:23;193.63;;;93.63;;
58621;SDS011;44389;51.578;5.456;2023-02-15T07:19:48;204.98;;;96.18;;
58621;SDS011;44389;51.578;5.456;2023-02-15T07:22:13;199.18;;;93.45;;
58621;SDS011;44389;51.578;5.456;2023-02-15T07:24:39;201.35;;;94.75;;
58621;SDS011;44389;51.578;5.456;2023-02-15T07:27:05;198.07;;;93.85;;
58621;SDS011;44389;51.578;5.456;2023-02-15T07:31:57;208.50;;;96.60;;
58621;SDS011;44389;51.578;5.456;2023-02-15T07:34:22;209.32;;;97.63;;
58621;SDS011;44389;51.578;5.456;2023-02-15T07:36:50;216.73;;;100.60;;
58621;SDS011;44389;51.578;5.456;2023-02-15T07:39:16;204.57;;;98.53;;
58621;SDS011;44389;51.578;5.456;2023-02-15T07:41:41;208.82;;;98.03;;
58621;SDS011;44389;51.578;5.456;2023-02-15T07:44:10;199.52;;;97.90;;
58621;SDS011;44389;51.578;5.456;2023-02-15T07:46:37;203.80;;;99.43;;
58621;SDS011;44389;51.578;5.456;2023-02-15T07:49:02;208.50;;;102.50;;
58621;SDS011;44389;51.578;5.456;2023-02-15T07:51:28;205.95;;;100.63;;
58621;SDS011;44389;51.578;5.456;2023-02-15T07:53:53;203.55;;;99.32;;
58621;SDS011;44389;51.578;5.456;2023-02-15T07:56:20;206.20;;;100.60;;
58621;SDS011;44389;51.578;5.456;2023-02-15T07:58:45;110.47;;;35.15;;
58621;SDS011;44389;51.578;5.456;2023-02-15T08:01:26;201.88;;;97.93;;
58621;SDS011;44389;51.578;5.456;2023-02-15T08:03:54;197.23;;;97.82;;
58621;SDS011;44389;51.578;5.456;2023-02-15T08:06:21;199.77;;;100.13;;
58621;SDS011;44389;51.578;5.456;2023-02-15T08:08:47;205.10;;;102.45;;
58621;SDS011;44389;51.578;5.456;2023-02-15T08:11:17;205.05;;;100.30;;
58621;SDS011;44389;51.578;5.456;2023-02-15T08:16:31;202.30;;;102.65;;
58621;SDS011;44389;51.578;5.456;2023-02-15T08:19:09;205.93;;;102.38;;
58621;SDS011;44389;51.578;5.456;2023-02-15T08:21:36;201.00;;;99.13;;
58621;SDS011;44389;51.578;5.456;2023-02-15T08:24:06;202.05;;;100.68;;
58621;SDS011;44389;51.578;5.456;2023-02-15T08:26:33;193.35;;;98.80;;
58621;SDS011;44389;51.578;5.456;2023-02-15T08:28:59;189.30;;;98.07;;
58621;SDS011;44389;51.578;5.456;2023-02-15T08:31:25;199.77;;;98.63;;
58621;SDS011;44389;51.578;5.456;2023-02-15T08:33:52;188.15;;;98.28;;
58621;SDS011;44389;51.578;5.456;2023-02-15T08:36:19;213.80;;;115.43;;
58621;SDS011;44389;51.578;5.456;2023-02-15T08:38:46;197.30;;;104.20;;
58621;SDS011;44389;51.578;5.456;2023-02-15T08:43:39;196.20;;;100.80;;
58621;SDS011;44389;51.578;5.456;2023-02-15T08:46:05;191.95;;;97.68;;
58621;SDS011;44389;51.578;5.456;2023-02-15T08:48:31;173.47;;;91.70;;
58621;SDS011;44389;51.578;5.456;2023-02-15T08:50:56;175.63;;;89.25;;
58621;SDS011;44389;51.578;5.456;2023-02-15T08:53:22;169.07;;;87.53;;
58621;SDS011;44389;51.578;5.456;2023-02-15T08:55:54;165.13;;;86.05;;
58621;SDS011;44389;51.578;5.456;2023-02-15T08:58:21;159.80;;;86.38;;
58621;SDS011;44389;51.578;5.456;2023-02-15T09:00:46;156.38;;;83.75;;
58621;SDS011;44389;51.578;5.456;2023-02-15T09:03:11;179.40;;;91.40;;
58621;SDS011;44389;51.578;5.456;2023-02-15T09:05:37;168.43;;;88.72;;
58621;SDS011;44389;51.578;5.456;2023-02-15T09:08:02;167.50;;;88.07;;
58621;SDS011;44389;51.578;5.456;2023-02-15T09:10:27;165.40;;;90.43;;
58621;SDS011;44389;51.578;5.456;2023-02-15T09:12:53;168.10;;;89.78;;
58621;SDS011;44389;51.578;5.456;2023-02-15T09:15:18;164.85;;;87.80;;
58621;SDS011;44389;51.578;5.456;2023-02-15T09:17:43;161.02;;;88.97;;
58621;SDS011;44389;51.578;5.456;2023-02-15T09:20:09;163.57;;;88.22;;
58621;SDS011;44389;51.578;5.456;2023-02-15T09:22:34;169.48;;;90.72;;
58621;SDS011;44389;51.578;5.456;2023-02-15T09:24:59;176.43;;;96.15;;
58621;SDS011;44389;51.578;5.456;2023-02-15T09:27:24;199.82;;;100.38;;
58621;SDS011;44389;51.578;5.456;2023-02-15T09:29:50;176.60;;;93.70;;
58621;SDS011;44389;51.578;5.456;2023-02-15T09:32:15;154.10;;;85.63;;
58621;SDS011;44389;51.578;5.456;2023-02-15T09:34:42;151.60;;;81.35;;
58621;SDS011;44389;51.578;5.456;2023-02-15T09:37:07;148.63;;;81.93;;
58621;SDS011;44389;51.578;5.456;2023-02-15T09:39:33;163.55;;;90.55;;
58621;SDS011;44389;51.578;5.456;2023-02-15T10:03:41;114.55;;;64.13;;
58621;SDS011;44389;51.578;5.456;2023-02-15T10:11:27;110.60;;;59.78;;
58621;SDS011;44389;51.578;5.456;2023-02-15T10:22:22;98.28;;;55.80;;
58621;SDS011;44389;51.578;5.456;2023-02-15T10:25:15;98.50;;;55.00;;
58621;SDS011;44389;51.578;5.456;2023-02-15T10:27:50;100.60;;;54.08;;
58621;SDS011;44389;51.578;5.456;2023-02-15T10:30:25;103.85;;;54.97;;
58621;SDS011;44389;51.578;5.456;2023-02-15T10:33:04;92.68;;;52.58;;
58621;SDS011;44389;51.578;5.456;2023-02-15T10:49:38;93.00;;;48.15;;
58621;SDS011;44389;51.578;5.456;2023-02-15T11:08:31;88.25;;;47.20;;
58621;SDS011;44389;51.578;5.456;2023-02-15T11:11:01;77.45;;;44.58;;
58621;SDS011;44389;51.578;5.456;2023-02-15T11:13:32;80.55;;;45.13;;
58621;SDS011;44389;51.578;5.456;2023-02-15T11:16:05;79.65;;;45.38;;
58621;SDS011;44389;51.578;5.456;2023-02-15T11:18:38;80.82;;;46.35;;
58621;SDS011;44389;51.578;5.456;2023-02-15T11:24:07;79.35;;;42.95;;
58621;SDS011;44389;51.578;5.456;2023-02-15T11:26:46;78.68;;;43.00;;
58621;SDS011;44389;51.578;5.456;2023-02-15T11:29:23;82.55;;;43.40;;
58621;SDS011;44389;51.578;5.456;2023-02-15T11:31:55;80.60;;;44.08;;
58621;SDS011;44389;51.578;5.456;2023-02-15T11:34:34;71.70;;;41.00;;
58621;SDS011;44389;51.578;5.456;2023-02-15T11:37:06;73.63;;;41.90;;
58621;SDS011;44389;51.578;5.456;2023-02-15T11:39:37;71.55;;;40.95;;
58621;SDS011;44389;51.578;5.456;2023-02-15T11:42:24;78.10;;;42.92;;
58621;SDS011;44389;51.578;5.456;2023-02-15T11:44:58;78.55;;;42.08;;
58621;SDS011;44389;51.578;5.456;2023-02-15T11:47:29;74.93;;;41.90;;
58621;SDS011;44389;51.578;5.456;2023-02-15T11:49:55;72.07;;;41.03;;
58621;SDS011;44389;51.578;5.456;2023-02-15T11:52:21;65.93;;;39.85;;
58621;SDS011;44389;51.578;5.456;2023-02-15T11:54:48;72.63;;;41.35;;
58621;SDS011;44389;51.578;5.456;2023-02-15T11:59:50;70.75;;;39.70;;
58621;SDS011;44389;51.578;5.456;2023-02-15T12:02:21;67.50;;;39.65;;
58621;SDS011;44389;51.578;5.456;2023-02-15T12:04:49;70.25;;;41.13;;
58621;SDS011;44389;51.578;5.456;2023-02-15T12:09:59;66.95;;;40.20;;
58621;SDS011;44389;51.578;5.456;2023-02-15T12:12:36;70.15;;;40.85;;
58621;SDS011;44389;51.578;5.456;2023-02-15T12:15:06;70.57;;;39.90;;
58621;SDS011;44389;51.578;5.456;2023-02-15T12:17:54;67.97;;;39.63;;
58621;SDS011;44389;51.578;5.456;2023-02-15T12:22:46;75.25;;;41.05;;
58621;SDS011;44389;51.578;5.456;2023-02-15T12:27:50;68.70;;;40.05;;
58621;SDS011;44389;51.578;5.456;2023-02-15T12:30:18;74.45;;;41.75;;
58621;SDS011;44389;51.578;5.456;2023-02-15T12:32:50;67.43;;;40.05;;
58621;SDS011;44389;51.578;5.456;2023-02-15T12:35:27;72.03;;;41.42;;
58621;SDS011;44389;51.578;5.456;2023-02-15T12:38:03;68.68;;;40.25;;
58621;SDS011;44389;51.578;5.456;2023-02-15T12:40:56;71.07;;;41.25;;
58621;SDS011;44389;51.578;5.456;2023-02-15T12:43:24;63.63;;;38.10;;
58621;SDS011;44389;51.578;5.456;2023-02-15T12:48:39;68.05;;;40.88;;
58621;SDS011;44389;51.578;5.456;2023-02-15T12:51:07;66.60;;;40.13;;
58621;SDS011;44389;51.578;5.456;2023-02-15T12:53:34;64.75;;;39.25;;
58621;SDS011;44389;51.578;5.456;2023-02-15T12:56:01;66.93;;;40.93;;
58621;SDS011;44389;51.578;5.456;2023-02-15T12:58:29;67.38;;;41.03;;
58621;SDS011;44389;51.578;5.456;2023-02-15T13:03:50;69.95;;;40.38;;
58621;SDS011;44389;51.578;5.456;2023-02-15T13:06:22;72.70;;;40.22;;
58621;SDS011;44389;51.578;5.456;2023-02-15T13:08:50;72.68;;;40.70;;
58621;SDS011;44389;51.578;5.456;2023-02-15T13:11:21;74.13;;;41.15;;
58621;SDS011;44389;51.578;5.456;2023-02-15T13:18:57;64.57;;;38.70;;
58621;SDS011;44389;51.578;5.456;2023-02-15T13:21:30;70.60;;;38.60;;
58621;SDS011;44389;51.578;5.456;2023-02-15T13:24:01;69.25;;;37.78;;
58621;SDS011;44389;51.578;5.456;2023-02-15T13:26:31;66.43;;;39.20;;
58621;SDS011;44389;51.578;5.456;2023-02-15T13:29:05;73.18;;;39.38;;
58621;SDS011;44389;51.578;5.456;2023-02-15T13:31:33;63.08;;;38.53;;
58621;SDS011;44389;51.578;5.456;2023-02-15T13:34:02;67.65;;;39.80;;
58621;SDS011;44389;51.578;5.456;2023-02-15T13:36:44;62.35;;;38.58;;
58621;SDS011;44389;51.578;5.456;2023-02-15T13:39:38;67.30;;;38.53;;
58621;SDS011;44389;51.578;5.456;2023-02-15T13:42:19;63.28;;;39.08;;
58621;SDS011;44389;51.578;5.456;2023-02-15T13:53:23;67.57;;;41.30;;
58621;SDS011;44389;51.578;5.456;2023-02-15T13:56:01;67.10;;;39.50;;
58621;SDS011;44389;51.578;5.456;2023-02-15T14:01:23;66.97;;;38.97;;
58621;SDS011;44389;51.578;5.456;2023-02-15T14:09:20;63.92;;;39.53;;
58621;SDS011;44389;51.578;5.456;2023-02-15T14:17:53;68.20;;;38.10;;
58621;SDS011;44389;51.578;5.456;2023-02-15T14:26:21;60.85;;;38.80;;
58621;SDS011;44389;51.578;5.456;2023-02-15T14:32:18;68.63;;;40.63;;
58621;SDS011;44389;51.578;5.456;2023-02-15T14:34:55;63.10;;;40.50;;
58621;SDS011;44389;51.578;5.456;2023-02-15T14:40:32;68.43;;;39.88;;
58621;SDS011;44389;51.578;5.456;2023-02-15T14:43:26;65.47;;;37.38;;
58621;SDS011;44389;51.578;5.456;2023-02-15T14:48:38;60.92;;;38.50;;
58621;SDS011;44389;51.578;5.456;2023-02-15T14:51:10;63.05;;;37.88;;
58621;SDS011;44389;51.578;5.456;2023-02-15T14:53:36;62.92;;;37.65;;
58621;SDS011;44389;51.578;5.456;2023-02-15T14:56:13;60.50;;;37.85;;
58621;SDS011;44389;51.578;5.456;2023-02-15T15:01:25;64.53;;;37.55;;
58621;SDS011;44389;51.578;5.456;2023-02-15T15:03:54;61.38;;;37.25;;
58621;SDS011;44389;51.578;5.456;2023-02-15T15:06:30;60.95;;;38.30;;
58621;SDS011;44389;51.578;5.456;2023-02-15T15:09:40;66.03;;;39.45;;
58621;SDS011;44389;51.578;5.456;2023-02-15T15:11:51;67.95;;;40.00;;
58621;SDS011;44389;51.578;5.456;2023-02-15T15:16:59;65.38;;;37.17;;
58621;SDS011;44389;51.578;5.456;2023-02-15T15:25:09;61.40;;;39.67;;
58621;SDS011;44389;51.578;5.456;2023-02-15T15:28:00;63.80;;;39.08;;
58621;SDS011;44389;51.578;5.456;2023-02-15T15:38:12;64.80;;;39.80;;
58621;SDS011;44389;51.578;5.456;2023-02-15T15:49:17;62.05;;;38.70;;
58621;SDS011;44389;51.578;5.456;2023-02-15T15:51:45;60.08;;;37.50;;
58621;SDS011;44389;51.578;5.456;2023-02-15T15:54:18;66.03;;;38.00;;
58621;SDS011;44389;51.578;5.456;2023-02-15T15:56:56;65.28;;;38.85;;
58621;SDS011;44389;51.578;5.456;2023-02-15T15:59:26;61.75;;;38.70;;
58621;SDS011;44389;51.578;5.456;2023-02-15T16:01:54;61.97;;;37.88;;
58621;SDS011;44389;51.578;5.456;2023-02-15T16:04:27;59.72;;;37.38;;
58621;SDS011;44389;51.578;5.456;2023-02-15T16:09:37;60.50;;;36.90;;
58621;SDS011;44389;51.578;5.456;2023-02-15T16:12:03;63.45;;;39.90;;
58621;SDS011;44389;51.578;5.456;2023-02-15T16:14:35;58.60;;;38.13;;
58621;SDS011;44389;51.578;5.456;2023-02-15T16:17:07;60.17;;;37.10;;
58621;SDS011;44389;51.578;5.456;2023-02-15T16:22:14;63.42;;;39.45;;
58621;SDS011;44389;51.578;5.456;2023-02-15T16:27:43;61.28;;;38.63;;
58621;SDS011;44389;51.578;5.456;2023-02-15T16:32:47;65.93;;;40.25;;
58621;SDS011;44389;51.578;5.456;2023-02-15T16:35:17;68.50;;;43.33;;
58621;SDS011;44389;51.578;5.456;2023-02-15T16:37:44;61.95;;;39.28;;
58621;SDS011;44389;51.578;5.456;2023-02-15T16:40:25;56.90;;;37.13;;
58621;SDS011;44389;51.578;5.456;2023-02-15T16:42:57;64.75;;;39.53;;
58621;SDS011;44389;51.578;5.456;2023-02-15T16:45:28;60.60;;;39.60;;
58621;SDS011;44389;51.578;5.456;2023-02-15T16:47:57;64.70;;;40.50;;
58621;SDS011;44389;51.578;5.456;2023-02-15T16:52:55;66.72;;;38.72;;
58621;SDS011;44389;51.578;5.456;2023-02-15T16:55:23;66.55;;;38.47;;
58621;SDS011;44389;51.578;5.456;2023-02-15T16:57:57;64.35;;;37.78;;
58621;SDS011;44389;51.578;5.456;2023-02-15T17:00:28;62.28;;;38.95;;
58621;SDS011;44389;51.578;5.456;2023-02-15T17:03:04;61.92;;;38.85;;
58621;SDS011;44389;51.578;5.456;2023-02-15T17:05:51;63.58;;;38.92;;
58621;SDS011;44389;51.578;5.456;2023-02-15T17:08:24;62.50;;;39.92;;
58621;SDS011;44389;51.578;5.456;2023-02-15T17:13:24;66.38;;;42.17;;
58621;SDS011;44389;51.578;5.456;2023-02-15T17:18:29;67.78;;;41.08;;
58621;SDS011;44389;51.578;5.456;2023-02-15T17:20:59;70.38;;;42.97;;
58621;SDS011;44389;51.578;5.456;2023-02-15T17:23:43;71.53;;;43.05;;
58621;SDS011;44389;51.578;5.456;2023-02-15T17:26:15;68.55;;;41.55;;
58621;SDS011;44389;51.578;5.456;2023-02-15T17:28:45;69.88;;;41.65;;
58621;SDS011;44389;51.578;5.456;2023-02-15T17:31:14;70.97;;;42.70;;
58621;SDS011;44389;51.578;5.456;2023-02-15T17:33:42;69.85;;;42.90;;
58621;SDS011;44389;51.578;5.456;2023-02-15T17:36:11;74.30;;;43.60;;
58621;SDS011;44389;51.578;5.456;2023-02-15T17:38:58;73.45;;;42.45;;
58621;SDS011;44389;51.578;5.456;2023-02-15T17:41:33;71.63;;;43.90;;
58621;SDS011;44389;51.578;5.456;2023-02-15T17:43:59;73.90;;;42.83;;
58621;SDS011;44389;51.578;5.456;2023-02-15T17:48:54;69.40;;;41.90;;
58621;SDS011;44389;51.578;5.456;2023-02-15T17:51:20;65.82;;;40.42;;
58621;SDS011;44389;51.578;5.456;2023-02-15T17:53:47;72.63;;;43.38;;
58621;SDS011;44389;51.578;5.456;2023-02-15T17:56:32;73.28;;;42.65;;
58621;SDS011;44389;51.578;5.456;2023-02-15T17:58:58;72.90;;;42.28;;
58621;SDS011;44389;51.578;5.456;2023-02-15T18:01:23;70.45;;;42.95;;
58621;SDS011;44389;51.578;5.456;2023-02-15T18:04:08;67.53;;;41.65;;
58621;SDS011;44389;51.578;5.456;2023-02-15T18:06:54;64.97;;;42.05;;
58621;SDS011;44389;51.578;5.456;2023-02-15T18:09:38;73.28;;;42.13;;
58621;SDS011;44389;51.578;5.456;2023-02-15T18:12:26;71.43;;;43.88;;
58621;SDS011;44389;51.578;5.456;2023-02-15T18:14:53;71.53;;;43.15;;
58621;SDS011;44389;51.578;5.456;2023-02-15T18:17:21;70.78;;;42.55;;
58621;SDS011;44389;51.578;5.456;2023-02-15T18:19:57;74.95;;;44.40;;
58621;SDS011;44389;51.578;5.456;2023-02-15T18:22:23;74.95;;;45.75;;
58621;SDS011;44389;51.578;5.456;2023-02-15T18:24:48;78.75;;;46.42;;
58621;SDS011;44389;51.578;5.456;2023-02-15T18:27:14;74.07;;;45.90;;
58621;SDS011;44389;51.578;5.456;2023-02-15T18:29:40;73.63;;;45.97;;
58621;SDS011;44389;51.578;5.456;2023-02-15T18:32:07;81.00;;;45.50;;
58621;SDS011;44389;51.578;5.456;2023-02-15T18:34:38;79.18;;;46.05;;
58621;SDS011;44389;51.578;5.456;2023-02-15T18:37:08;83.00;;;47.63;;
58621;SDS011;44389;51.578;5.456;2023-02-15T18:39:44;75.03;;;46.70;;
58621;SDS011;44389;51.578;5.456;2023-02-15T18:44:48;80.65;;;45.47;;
58621;SDS011;44389;51.578;5.456;2023-02-15T18:47:17;76.30;;;46.42;;
58621;SDS011;44389;51.578;5.456;2023-02-15T18:49:42;74.03;;;46.63;;
58621;SDS011;44389;51.578;5.456;2023-02-15T18:52:15;77.95;;;46.65;;
58621;SDS011;44389;51.578;5.456;2023-02-15T18:54:42;79.50;;;47.88;;
58621;SDS011;44389;51.578;5.456;2023-02-15T18:57:09;84.87;;;48.40;;
58621;SDS011;44389;51.578;5.456;2023-02-15T18:59:38;81.25;;;50.40;;
58621;SDS011;44389;51.578;5.456;2023-02-15T19:02:05;82.32;;;50.45;;
58621;SDS011;44389;51.578;5.456;2023-02-15T19:04:36;80.45;;;50.75;;